createdAt,value
2022-10-06T03:22:54.279Z,15.01
2022-10-06T03:26:04.050Z,15.02
2022-10-06T03:29:16.629Z,14.93
2022-10-06T03:32:31.137Z,14.91
2022-10-06T03:35:44.201Z,14.92
2022-10-06T03:38:58.148Z,14.90
2022-10-06T03:42:07.843Z,14.88
2022-10-06T03:45:17.528Z,14.82
2022-10-06T03:48:27.948Z,14.80
2022-10-06T03:51:42.634Z,14.75
2022-10-06T03:54:58.882Z,14.75
2022-10-06T03:58:08.828Z,14.78
2022-10-06T04:01:25.710Z,14.76
2022-10-06T04:04:38.337Z,14.75
2022-10-06T04:07:53.400Z,14.77
2022-10-06T04:11:11.295Z,14.76
2022-10-06T04:14:20.955Z,14.72
2022-10-06T04:17:30.543Z,14.69
2022-10-06T04:20:40.508Z,14.70
2022-10-06T04:23:50.609Z,14.71
2022-10-06T04:27:18.615Z,14.69
2022-10-06T04:30:35.167Z,14.66
2022-10-06T04:33:46.818Z,14.64
2022-10-06T04:36:58.871Z,14.59
2022-10-06T04:40:09.648Z,14.52
2022-10-06T04:43:23.833Z,14.45
2022-10-06T04:46:43.094Z,14.38
2022-10-06T04:49:57.515Z,14.30
2022-10-06T04:53:07.252Z,14.26
2022-10-06T04:56:18.965Z,14.19
2022-10-06T07:24:50.933Z,14.16
2022-10-06T07:28:04.708Z,14.44
2022-10-06T07:31:21.407Z,14.77
2022-10-06T07:34:31.715Z,15.09
2022-10-06T07:37:41.544Z,15.37
2022-10-06T07:44:31.479Z,15.64
2022-10-06T07:47:41.211Z,15.77
2022-10-06T07:50:52.806Z,15.95
2022-10-06T07:54:12.306Z,16.19
2022-10-06T07:57:34.886Z,16.39
2022-10-06T08:00:47.986Z,16.28
2022-10-06T08:03:57.991Z,16.20
2022-10-06T08:07:10.184Z,16.05
2022-10-06T08:10:22.919Z,16.02
2022-10-06T08:13:35.799Z,16.20
2022-10-06T08:16:45.743Z,16.29
2022-10-06T08:19:57.462Z,16.55
2022-10-06T08:23:08.645Z,16.63
2022-10-06T08:26:20.606Z,16.72
2022-10-06T08:29:31.519Z,16.97
2022-10-06T08:32:42.896Z,17.16
2022-10-06T08:35:55.584Z,17.44
2022-10-06T08:39:07.218Z,17.88
2022-10-06T08:42:29.814Z,18.49
2022-10-06T08:45:45.624Z,19.12
2022-10-06T08:49:00.459Z,19.75
2022-10-06T08:52:25.522Z,20.27
2022-10-06T08:55:43.120Z,20.32
2022-10-06T08:58:55.261Z,20.42
2022-10-06T09:02:22.724Z,20.62
2022-10-06T09:05:34.677Z,21.03
2022-10-06T09:08:53.158Z,20.64
2022-10-06T09:12:13.181Z,19.91
2022-10-06T09:15:31.386Z,19.81
2022-10-06T09:19:07.663Z,20.07
2022-10-06T09:22:26.274Z,20.33
2022-10-06T09:25:38.366Z,19.90
2022-10-06T09:28:47.979Z,20.24
2022-10-06T09:31:57.668Z,20.59
2022-10-06T09:35:18.817Z,21.14
2022-10-06T09:38:47.649Z,21.19
2022-10-06T09:41:57.569Z,21.09
2022-10-06T09:45:26.326Z,21.53
2022-10-06T09:48:38.488Z,21.56
2022-10-06T09:52:02.687Z,21.88
2022-10-06T09:55:22.182Z,22.09
2022-10-06T09:58:34.689Z,21.79
2022-10-06T10:01:55.210Z,21.18
2022-10-06T10:05:07.582Z,20.91
2022-10-06T10:08:23.127Z,20.81
2022-10-06T10:11:43.857Z,21.15
2022-10-06T10:14:57.260Z,21.64
2022-10-06T10:18:13.899Z,22.39
2022-10-06T10:21:29.331Z,22.51
2022-10-06T10:25:06.503Z,22.26
2022-10-06T10:28:32.325Z,22.42
2022-10-06T10:31:51.177Z,22.43
2022-10-06T10:35:11.529Z,22.92
2022-10-06T10:38:27.077Z,23.13
2022-10-06T10:41:46.089Z,23.33
2022-10-06T10:45:01.929Z,23.50
2022-10-06T10:48:16.582Z,23.50
2022-10-06T10:51:34.810Z,23.12
2022-10-06T10:54:55.714Z,22.92
2022-10-06T10:58:18.466Z,22.94
2022-10-06T11:01:37.300Z,22.83
2022-10-06T11:04:54.986Z,22.77
2022-10-06T11:08:14.884Z,22.75
2022-10-06T11:11:42.341Z,22.56
2022-10-06T11:15:02.129Z,22.44
2022-10-06T11:18:26.059Z,22.25
2022-10-06T11:21:40.643Z,22.44
2022-10-06T11:25:01.323Z,22.45
2022-10-06T11:28:19.919Z,22.50
2022-10-06T11:31:36.404Z,22.54
2022-10-06T11:34:49.092Z,22.54
2022-10-06T11:38:06.676Z,22.59
2022-10-06T11:41:25.445Z,22.72
2022-10-06T11:44:40.291Z,22.73
2022-10-06T11:48:11.323Z,22.78
2022-10-06T11:51:30.577Z,22.67
2022-10-06T11:54:50.289Z,22.81
2022-10-06T12:01:55.654Z,22.19
2022-10-06T12:09:03.726Z,21.82
2022-10-06T12:12:42.265Z,22.20
2022-10-06T12:19:38.254Z,22.86
2022-10-06T12:22:53.473Z,22.71
2022-10-06T12:29:53.587Z,21.57
2022-10-06T12:33:05.702Z,21.92
2022-10-06T12:40:26.572Z,22.24
2022-10-06T12:47:37.703Z,22.54
2022-10-06T12:50:50.329Z,22.45
2022-10-06T12:54:08.984Z,22.28
2022-10-06T12:57:28.519Z,22.11
2022-10-06T13:00:40.770Z,22.12
2022-10-06T13:03:51.542Z,22.24
2022-10-06T13:07:07.742Z,22.40
2022-10-06T13:10:21.061Z,22.41
2022-10-06T13:13:32.163Z,22.51
2022-10-06T13:16:49.209Z,22.18
2022-10-06T13:20:01.904Z,21.88
2022-10-06T13:23:26.619Z,21.61
2022-10-06T13:26:36.487Z,21.27
2022-10-06T13:29:47.415Z,21.04
2022-10-06T13:33:00.435Z,20.81
2022-10-06T13:36:12.374Z,20.70
2022-10-06T13:39:25.388Z,20.43
2022-10-06T13:42:35.014Z,20.29
2022-10-06T13:45:50.607Z,20.20
2022-10-06T13:49:03.280Z,20.05
2022-10-06T13:52:20.353Z,19.87
2022-10-06T13:55:31.838Z,19.75
2022-10-06T13:58:41.557Z,19.62
2022-10-06T14:01:54.815Z,19.46
2022-10-06T14:05:20.424Z,19.37
2022-10-06T14:08:37.327Z,19.36
2022-10-06T14:11:49.370Z,19.33
2022-10-06T14:14:59.433Z,19.22
2022-10-06T14:18:21.938Z,19.07
2022-10-06T14:21:44.494Z,19.06
2022-10-06T14:24:55.176Z,18.97
2022-10-06T14:28:04.777Z,18.84
2022-10-06T14:31:14.961Z,18.69
2022-10-06T14:34:27.048Z,18.71
2022-10-06T14:37:43.745Z,18.67
2022-10-06T14:40:59.185Z,18.62
2022-10-06T14:44:11.223Z,18.60
2022-10-06T14:47:20.946Z,18.57
2022-10-06T14:50:32.460Z,18.53
2022-10-06T14:53:45.916Z,18.57
2022-10-06T14:56:58.466Z,18.57
2022-10-06T15:00:10.372Z,18.53
2022-10-06T15:03:20.114Z,18.50
2022-10-06T15:06:45.337Z,18.45
2022-10-06T15:09:55.407Z,18.42
2022-10-06T15:13:07.456Z,18.39
2022-10-06T15:16:18.439Z,18.29
2022-10-06T15:19:35.000Z,18.21
2022-10-06T15:22:48.260Z,18.11
2022-10-06T15:26:08.857Z,18.01
2022-10-06T15:29:19.061Z,17.86
2022-10-06T15:32:28.635Z,17.76
2022-10-06T15:35:47.748Z,17.62
2022-10-06T15:38:59.300Z,17.47
2022-10-06T15:42:09.523Z,17.35
2022-10-06T15:45:20.347Z,17.23
2022-10-06T15:48:29.948Z,17.13
2022-10-06T15:51:47.248Z,17.02
2022-10-06T15:54:58.097Z,16.79
2022-10-06T15:58:10.256Z,16.58
2022-10-06T16:01:27.850Z,16.41
2022-10-06T16:04:55.602Z,16.27
2022-10-06T16:08:11.764Z,16.14
2022-10-06T16:11:25.027Z,16.08
2022-10-06T16:14:38.123Z,15.90
2022-10-06T16:17:47.679Z,15.69
2022-10-06T16:20:57.699Z,15.57
2022-10-06T16:24:07.668Z,15.41
2022-10-06T16:27:18.780Z,15.23
2022-10-06T16:30:28.621Z,15.13
2022-10-06T16:33:39.997Z,15.03
2022-10-06T16:36:55.427Z,14.91
2022-10-06T16:40:08.461Z,14.70
2022-10-06T16:43:19.892Z,14.60
2022-10-06T16:46:33.269Z,14.53
2022-10-06T16:49:42.965Z,14.44
2022-10-06T16:52:52.534Z,14.32
2022-10-06T16:56:02.134Z,14.22
2022-10-06T16:59:14.739Z,14.14
2022-10-06T17:02:27.100Z,14.00
2022-10-06T17:05:37.708Z,13.90
2022-10-06T17:08:47.319Z,13.82
2022-10-06T17:11:59.337Z,13.67
2022-10-06T17:15:10.713Z,13.49
2022-10-06T17:18:21.438Z,13.38
2022-10-06T17:21:54.113Z,13.26
2022-10-06T17:25:03.732Z,13.08
2022-10-06T17:28:14.503Z,12.90
2022-10-06T17:31:30.102Z,12.77
2022-10-06T17:34:41.073Z,12.60
2022-10-06T17:37:51.330Z,12.51
2022-10-06T17:41:07.200Z,12.37
2022-10-06T17:44:23.385Z,12.28
2022-10-06T17:47:38.714Z,12.25
2022-10-06T17:51:00.038Z,12.11
2022-10-06T17:54:16.570Z,11.99
2022-10-06T17:57:28.867Z,11.93
2022-10-06T18:00:40.593Z,11.90
2022-10-06T18:03:55.606Z,11.80
2022-10-06T18:07:08.811Z,11.63
2022-10-06T18:10:30.992Z,11.32
2022-10-06T18:13:42.168Z,11.16
2022-10-06T18:16:56.917Z,11.10
2022-10-06T18:20:10.105Z,11.00
2022-10-06T18:23:21.519Z,10.93
2022-10-06T18:26:36.428Z,10.80
2022-10-06T18:29:56.799Z,10.66
2022-10-06T18:36:41.953Z,10.17
2022-10-06T18:39:53.223Z,10.05
2022-10-06T18:43:04.667Z,10.07
2022-10-06T18:46:27.819Z,10.07
2022-10-06T18:49:39.240Z,10.05
2022-10-06T18:52:52.259Z,10.00
2022-10-06T18:56:05.682Z,9.95
2022-10-06T18:59:16.940Z,9.95
2022-10-06T19:02:31.440Z,9.80
2022-10-06T19:05:55.804Z,9.59
2022-10-06T19:09:08.558Z,9.60
2022-10-06T19:12:28.890Z,9.60
2022-10-06T19:15:40.693Z,9.63
2022-10-06T19:18:51.957Z,9.63
2022-10-06T19:22:07.055Z,9.53
2022-10-06T19:25:28.788Z,9.39
2022-10-06T19:28:40.558Z,9.23
2022-10-06T19:31:53.654Z,9.21
2022-10-06T19:35:09.981Z,9.23
2022-10-06T19:38:28.366Z,9.20
2022-10-06T19:41:51.930Z,9.07
2022-10-06T19:45:03.119Z,8.92
2022-10-06T19:48:14.530Z,8.90
2022-10-06T19:51:26.762Z,8.89
2022-10-06T19:54:38.990Z,8.84
2022-10-06T19:57:52.070Z,8.75
2022-10-06T20:01:07.320Z,8.62
2022-10-06T20:04:24.726Z,8.49
2022-10-06T20:07:36.007Z,8.39
2022-10-06T20:10:47.185Z,8.40
2022-10-06T20:13:59.752Z,8.39
2022-10-06T20:17:13.969Z,8.42
2022-10-06T20:20:26.267Z,8.42
2022-10-06T20:23:37.451Z,8.34
2022-10-06T20:26:48.844Z,8.34
2022-10-06T20:30:01.158Z,8.34
2022-10-06T20:33:12.668Z,8.36
2022-10-06T20:36:24.154Z,8.32
2022-10-06T20:39:49.084Z,8.30
2022-10-06T20:43:02.845Z,8.22
2022-10-06T20:46:14.578Z,8.04
2022-10-06T20:49:24.290Z,7.93
2022-10-06T20:52:36.638Z,7.94
2022-10-06T20:55:52.120Z,7.98
2022-10-06T20:59:02.328Z,8.04
2022-10-06T21:02:13.393Z,7.96
2022-10-06T21:05:23.036Z,7.89
2022-10-06T21:08:32.749Z,7.87
2022-10-06T21:11:42.486Z,7.66
2022-10-06T21:14:52.256Z,7.50
2022-10-06T21:18:05.596Z,7.42
2022-10-06T21:21:15.405Z,7.37
2022-10-06T21:24:34.402Z,7.36
2022-10-06T21:27:52.943Z,7.36
2022-10-06T21:31:06.880Z,7.36
2022-10-06T21:34:17.951Z,7.37
2022-10-06T21:37:27.716Z,7.36
2022-10-06T21:40:37.926Z,7.38
